Time;durP1;ratioP1;P1;durP2;ratioP2;P2;SDS_P1;SDS_P2;PMS_P1;PMS_P2;Temp;Humidity;BMP_temperature;BMP_pressure;BME280_temperature;BME280_humidity;BME280_pressure;Samples;Min_cycle;Max_cycle;Signal;HPM_P1;HPM_P2
2024/03/18 00:01:46;;;;;;;4.80;4.70;;;20.30;56.40;;;;;;4984227;28;20447;-62
2024/03/18 00:04:14;;;;;;;4.63;4.53;;;20.30;56.40;;;;;;4976058;28;20450;-62
2024/03/18 00:06:40;;;;;;;4.27;4.23;;;20.30;56.40;;;;;;4983771;28;20446;-62
2024/03/18 00:09:07;;;;;;;4.40;4.30;;;20.40;56.50;;;;;;4982406;28;20463;-61
2024/03/18 00:11:34;;;;;;;4.73;4.63;;;20.30;56.40;;;;;;4980866;28;20455;-61
2024/03/18 00:14:01;;;;;;;4.30;4.30;;;20.30;56.40;;;;;;4981864;28;20487;-62
2024/03/18 00:16:28;;;;;;;5.50;5.30;;;20.30;56.50;;;;;;4982933;28;20443;-60
2024/03/18 00:18:55;;;;;;;5.60;5.50;;;20.30;56.50;;;;;;5051203;23;20548;-63
2024/03/18 00:21:23;;;;;;;4.63;4.53;;;20.30;56.60;;;;;;5017708;28;20442;-64
2024/03/18 00:23:50;;;;;;;5.20;5.10;;;20.30;56.60;;;;;;5027753;28;20497;-62
2024/03/18 00:26:17;;;;;;;5.33;5.23;;;20.30;56.60;;;;;;5026675;28;20517;-63
2024/03/18 00:28:44;;;;;;;5.27;5.17;;;20.30;56.70;;;;;;5026119;28;20469;-63
2024/03/18 00:31:11;;;;;;;5.00;4.90;;;20.30;56.70;;;;;;5026168;28;20446;-63
2024/03/18 00:33:38;;;;;;;4.97;4.87;;;20.30;57.10;;;;;;5016029;28;20477;-61
2024/03/18 00:36:05;;;;;;;5.00;4.97;;;20.30;56.60;;;;;;5014663;28;20446;-61
2024/03/18 00:38:34;;;;;;;4.77;4.67;;;20.30;56.70;;;;;;5015245;28;20466;-63
2024/03/18 00:43:42;;;;;;;4.87;4.77;;;20.20;56.70;;;;;;5014556;28;20430;-63
2024/03/18 00:46:08;;;;;;;5.20;5.10;;;20.20;56.80;;;;;;5014630;28;20445;-60
2024/03/18 00:48:35;;;;;;;5.10;5.00;;;20.20;56.80;;;;;;5015095;28;20885;-62
2024/03/18 00:51:02;;;;;;;5.00;4.90;;;20.20;56.80;;;;;;5014802;28;20233;-62
2024/03/18 00:53:28;;;;;;;5.10;5.00;;;20.20;56.90;;;;;;5014505;28;20854;-61
2024/03/18 00:55:56;;;;;;;5.27;5.17;;;20.20;56.90;;;;;;5014493;28;20957;-61
2024/03/18 00:58:23;;;;;;;5.00;4.90;;;20.20;57.00;;;;;;5006646;28;20465;-62
2024/03/18 01:00:50;;;;;;;4.93;4.83;;;20.20;57.00;;;;;;5014600;28;20438;-62
2024/03/18 01:03:17;;;;;;;5.40;5.30;;;20.20;57.10;;;;;;5014252;28;20442;-63
2024/03/18 01:05:43;;;;;;;5.47;5.37;;;20.20;57.10;;;;;;5014300;28;20480;-62
2024/03/18 01:08:10;;;;;;;4.80;4.70;;;20.20;57.10;;;;;;5014636;28;20465;-62
2024/03/18 01:10:37;;;;;;;5.13;4.83;;;20.20;57.10;;;;;;5014409;28;20449;-62
2024/03/18 01:13:11;;;;;;;5.27;5.17;;;20.20;57.10;;;;;;5014051;28;20846;-62
2024/03/18 01:15:38;;;;;;;4.93;4.83;;;20.20;57.00;;;;;;5014191;28;20442;-61
2024/03/18 01:18:05;;;;;;;5.40;5.30;;;20.20;57.10;;;;;;5013985;28;20474;-61
2024/03/18 01:20:33;;;;;;;5.20;5.10;;;20.20;57.10;;;;;;5014036;28;20500;-62
2024/03/18 01:23:00;;;;;;;5.10;5.00;;;20.20;57.10;;;;;;5014155;28;20438;-62
2024/03/18 01:25:30;;;;;;;5.33;5.23;;;20.20;57.10;;;;;;5013572;28;20446;-62
2024/03/18 01:27:57;;;;;;;5.50;5.40;;;20.20;57.10;;;;;;5014075;28;20462;-63
2024/03/18 01:30:25;;;;;;;4.90;4.80;;;20.20;57.10;;;;;;5013738;28;20453;-60
2024/03/18 01:32:52;;;;;;;4.90;4.80;;;20.20;57.30;;;;;;5013446;28;20804;-62
2024/03/18 01:35:20;;;;;;;5.40;5.20;;;20.20;57.10;;;;;;5013580;28;20442;-62
2024/03/18 01:37:47;;;;;;;4.57;4.47;;;20.20;57.10;;;;;;5013747;28;20492;-60
2024/03/18 01:40:14;;;;;;;5.00;4.90;;;20.10;57.10;;;;;;5013679;28;20541;-62
2024/03/18 01:42:41;;;;;;;4.77;4.67;;;20.20;57.20;;;;;;5014033;28;20448;-62
2024/03/18 01:45:09;;;;;;;4.93;4.73;;;20.10;57.10;;;;;;5013252;28;20438;-60
2024/03/18 01:47:39;;;;;;;5.10;5.00;;;20.10;57.10;;;;;;5013679;28;20443;-62
2024/03/18 01:50:09;;;;;;;4.87;4.77;;;20.10;57.20;;;;;;5013551;28;20438;-62
2024/03/18 01:52:36;;;;;;;4.93;4.77;;;20.10;57.20;;;;;;5013846;28;20577;-63
2024/03/18 01:55:03;;;;;;;5.00;4.90;;;20.20;57.30;;;;;;5013121;28;20484;-62
2024/03/18 01:57:30;;;;;;;4.90;4.80;;;20.10;57.30;;;;;;5013400;28;20438;-63
2024/03/18 01:59:58;;;;;;;4.97;4.60;;;20.10;57.30;;;;;;5013485;28;20508;-62
2024/03/18 02:02:24;;;;;;;4.60;4.50;;;20.10;57.30;;;;;;5013196;28;20521;-62
2024/03/18 02:04:52;;;;;;;4.70;4.60;;;20.10;57.30;;;;;;5012997;28;20434;-62
2024/03/18 02:07:26;;;;;;;4.50;4.40;;;20.10;57.30;;;;;;5013185;28;20809;-62
2024/03/18 02:09:53;;;;;;;5.20;5.10;;;20.10;57.30;;;;;;5013395;28;20442;-61
2024/03/18 02:12:20;;;;;;;4.90;4.80;;;20.10;57.30;;;;;;5013255;28;20450;-62
2024/03/18 02:14:51;;;;;;;4.90;4.80;;;20.10;57.30;;;;;;5012799;28;20482;-61
2024/03/18 02:17:18;;;;;;;5.30;5.20;;;20.10;57.30;;;;;;5013074;28;20454;-62
2024/03/18 02:19:45;;;;;;;5.17;5.07;;;20.10;57.30;;;;;;5013183;28;20450;-61
2024/03/18 02:22:14;;;;;;;5.50;5.30;;;20.10;57.30;;;;;;5012960;28;20530;-62
2024/03/18 02:24:41;;;;;;;5.40;5.20;;;20.10;57.30;;;;;;5013014;28;20509;-62
2024/03/18 02:27:08;;;;;;;5.07;4.97;;;20.10;57.30;;;;;;5013274;28;20445;-62
2024/03/18 02:29:35;;;;;;;5.20;5.10;;;20.10;57.30;;;;;;5013009;28;20465;-62
2024/03/18 02:32:02;;;;;;;4.70;4.60;;;20.10;57.40;;;;;;5013147;28;20445;-60
2024/03/18 02:34:30;;;;;;;5.70;5.60;;;20.10;57.40;;;;;;5005045;28;20504;-62
2024/03/18 02:36:57;;;;;;;6.20;6.10;;;20.10;57.40;;;;;;5012416;28;20500;-62
2024/03/18 02:39:26;;;;;;;5.10;5.00;;;20.00;57.40;;;;;;5012835;28;20465;-62
2024/03/18 02:41:54;;;;;;;4.97;4.87;;;20.00;57.40;;;;;;5012808;28;20450;-62
2024/03/18 02:44:21;;;;;;;5.20;5.10;;;20.00;57.40;;;;;;5011699;28;20938;-62
2024/03/18 02:46:48;;;;;;;5.10;5.00;;;20.00;57.40;;;;;;5012648;28;20438;-62
2024/03/18 02:49:15;;;;;;;5.40;5.30;;;20.00;57.40;;;;;;5012751;28;20473;-62
2024/03/18 02:51:43;;;;;;;4.83;4.73;;;20.10;57.50;;;;;;5012638;28;20496;-62
2024/03/18 02:54:10;;;;;;;5.43;5.33;;;20.00;57.40;;;;;;5012597;28;20481;-62
2024/03/18 02:56:38;;;;;;;5.50;5.40;;;20.00;57.40;;;;;;5012471;28;20461;-61
2024/03/18 02:59:05;;;;;;;4.90;4.80;;;20.00;57.40;;;;;;5012273;28;20974;-62
2024/03/18 03:01:31;;;;;;;5.00;4.90;;;20.00;57.40;;;;;;5012628;28;20446;-62
2024/03/18 03:03:58;;;;;;;4.97;4.83;;;20.00;57.40;;;;;;5012739;28;20897;-61
2024/03/18 03:06:25;;;;;;;5.13;4.93;;;20.00;57.50;;;;;;5011979;28;20809;-62
2024/03/18 03:08:52;;;;;;;5.30;5.20;;;20.00;57.50;;;;;;5012320;28;20986;-62
2024/03/18 03:11:18;;;;;;;4.80;4.80;;;20.00;57.50;;;;;;5012343;28;20446;-62
2024/03/18 03:13:46;;;;;;;5.50;5.40;;;20.00;57.40;;;;;;5012072;28;20481;-62
2024/03/18 03:16:14;;;;;;;5.40;5.20;;;20.00;57.40;;;;;;5011733;28;20815;-62
2024/03/18 03:18:41;;;;;;;4.87;4.77;;;20.00;57.50;;;;;;5011958;28;20474;-62
2024/03/18 03:21:09;;;;;;;4.70;4.60;;;20.10;57.60;;;;;;5012362;28;20442;-62
2024/03/18 03:23:36;;;;;;;5.40;5.30;;;20.00;57.50;;;;;;5011648;28;20496;-62
2024/03/18 03:26:04;;;;;;;5.53;5.43;;;20.00;57.50;;;;;;5011514;28;20441;-62
2024/03/18 03:28:31;;;;;;;4.80;4.70;;;20.00;57.50;;;;;;5003848;28;20469;-60
2024/03/18 03:31:05;;;;;;;5.07;4.97;;;20.00;57.60;;;;;;5012104;28;20786;-62
2024/03/18 03:33:33;;;;;;;4.80;4.60;;;20.00;57.60;;;;;;5003873;28;20553;-62
2024/03/18 03:36:00;;;;;;;4.70;4.70;;;20.00;57.60;;;;;;5011333;28;20884;-62
2024/03/18 03:38:26;;;;;;;5.30;5.20;;;20.00;57.60;;;;;;5011742;28;20462;-63
2024/03/18 03:40:53;;;;;;;5.40;5.20;;;20.00;57.60;;;;;;5011902;28;20434;-60
2024/03/18 03:43:21;;;;;;;5.00;4.90;;;20.00;57.70;;;;;;5011519;28;20453;-62
2024/03/18 03:45:54;;;;;;;5.20;5.10;;;20.00;57.60;;;;;;5011635;28;20442;-62
2024/03/18 03:48:22;;;;;;;5.20;5.10;;;20.00;57.70;;;;;;5012017;28;20466;-60
2024/03/18 03:50:49;;;;;;;5.80;5.70;;;20.00;57.70;;;;;;5011723;28;20449;-63
2024/03/18 03:53:17;;;;;;;5.53;5.43;;;20.00;57.70;;;;;;5011160;28;20453;-62
2024/03/18 03:55:43;;;;;;;4.83;4.73;;;20.00;58.30;;;;;;5004757;28;21037;-62
2024/03/18 03:58:10;;;;;;;5.80;5.70;;;20.00;57.70;;;;;;5015909;28;20458;-62
2024/03/18 04:00:37;;;;;;;5.33;5.23;;;20.00;57.80;;;;;;5015734;28;20449;-60
2024/03/18 04:03:04;;;;;;;4.90;4.80;;;20.00;57.70;;;;;;5015732;28;21022;-62
2024/03/18 04:05:32;;;;;;;5.70;5.60;;;20.00;57.80;;;;;;5015326;28;20850;-62
2024/03/18 04:07:59;;;;;;;5.70;5.50;;;20.00;57.80;;;;;;5015817;28;20472;-62
2024/03/18 04:10:25;;;;;;;5.50;5.30;;;20.00;57.70;;;;;;5015539;28;20450;-60
2024/03/18 04:12:52;;;;;;;5.30;5.20;;;20.00;57.80;;;;;;5015221;28;20449;-63
2024/03/18 04:15:19;;;;;;;5.73;5.63;;;20.00;57.80;;;;;;5015208;28;20489;-61
2024/03/18 04:17:47;;;;;;;6.07;5.87;;;20.00;57.90;;;;;;5015578;28;20978;-62
2024/03/18 04:20:19;;;;;;;5.70;5.60;;;20.00;58.00;;;;;;5015293;28;20501;-62
2024/03/18 04:22:50;;;;;;;5.97;5.77;;;20.00;58.10;;;;;;5015262;28;20492;-62
2024/03/18 04:25:17;;;;;;;5.37;5.27;;;20.00;58.10;;;;;;5006909;28;20481;-61
2024/03/18 04:27:44;;;;;;;5.80;5.70;;;20.00;58.20;;;;;;5015268;28;20465;-61
2024/03/18 04:30:16;;;;;;;5.50;5.40;;;19.90;58.10;;;;;;5015157;28;20530;-62
2024/03/18 04:32:43;;;;;;;5.60;5.50;;;19.90;58.20;;;;;;5015250;28;21002;-62
2024/03/18 04:35:11;;;;;;;5.90;5.80;;;19.90;58.20;;;;;;5014618;28;20565;-62
2024/03/18 04:37:42;;;;;;;5.13;5.03;;;19.90;58.30;;;;;;5015124;28;20449;-62
2024/03/18 04:40:12;;;;;;;6.40;6.30;;;19.90;58.30;;;;;;5015069;28;20438;-62
2024/03/18 04:42:40;;;;;;;5.93;5.83;;;19.90;58.30;;;;;;5014881;28;20454;-61
2024/03/18 04:45:08;;;;;;;5.80;5.70;;;19.90;58.40;;;;;;5014690;28;20442;-62
2024/03/18 04:47:37;;;;;;;6.00;5.90;;;19.90;58.40;;;;;;4998812;28;20439;-60
2024/03/18 04:50:04;;;;;;;5.73;5.63;;;19.90;58.30;;;;;;5014944;28;20469;-61
2024/03/18 04:52:31;;;;;;;5.57;5.47;;;19.90;58.30;;;;;;5014694;28;20438;-61
2024/03/18 04:54:58;;;;;;;5.80;5.70;;;19.90;58.30;;;;;;5014508;28;20485;-62
2024/03/18 04:57:26;;;;;;;5.77;5.67;;;19.90;58.40;;;;;;5014621;28;20516;-61
2024/03/18 04:59:53;;;;;;;6.23;6.03;;;19.90;58.50;;;;;;5014764;28;20446;-61
2024/03/18 05:02:21;;;;;;;5.87;5.77;;;19.90;58.50;;;;;;5014469;28;20468;-62
2024/03/18 05:04:49;;;;;;;6.07;5.97;;;20.00;58.70;;;;;;5014257;28;20438;-62
2024/03/18 05:07:16;;;;;;;6.10;6.00;;;20.00;58.70;;;;;;5013267;28;20477;-62
2024/03/18 05:09:43;;;;;;;5.90;5.80;;;20.00;58.70;;;;;;5014726;28;20462;-62
2024/03/18 05:12:10;;;;;;;6.00;5.80;;;20.00;58.80;;;;;;5014317;28;20445;-62
2024/03/18 05:14:38;;;;;;;5.80;5.70;;;20.00;58.80;;;;;;5014382;28;20508;-61
2024/03/18 05:17:05;;;;;;;5.90;5.70;;;20.00;58.90;;;;;;5014098;28;20446;-62
2024/03/18 05:19:32;;;;;;;5.40;5.30;;;19.90;58.90;;;;;;5014200;28;20472;-61
2024/03/18 05:21:59;;;;;;;5.53;5.43;;;20.00;59.00;;;;;;5014157;28;20449;-59
2024/03/18 05:24:26;;;;;;;6.00;5.90;;;20.00;59.10;;;;;;5014104;28;20796;-61
2024/03/18 05:26:52;;;;;;;5.47;5.37;;;20.00;59.00;;;;;;5021121;28;20446;-63
2024/03/18 05:29:19;;;;;;;5.57;5.47;;;20.00;59.10;;;;;;5026941;28;20466;-63
2024/03/18 05:31:47;;;;;;;5.67;5.57;;;20.00;59.20;;;;;;5026675;28;20452;-63
2024/03/18 05:34:14;;;;;;;5.90;5.80;;;20.00;59.30;;;;;;5026017;28;20470;-63
2024/03/18 05:36:41;;;;;;;6.63;6.43;;;20.00;59.40;;;;;;5025957;28;20470;-63
2024/03/18 05:39:08;;;;;;;6.30;6.20;;;20.00;59.30;;;;;;5026385;28;20480;-63
2024/03/18 05:41:36;;;;;;;5.70;5.60;;;20.00;59.50;;;;;;5013945;28;20439;-61
2024/03/18 05:44:03;;;;;;;5.90;5.80;;;20.00;59.50;;;;;;5013879;28;20508;-61
2024/03/18 05:46:29;;;;;;;6.27;6.17;;;20.00;59.60;;;;;;5013441;28;20464;-62
2024/03/18 05:48:57;;;;;;;6.47;6.37;;;20.00;59.60;;;;;;5013513;28;20465;-62
2024/03/18 05:51:24;;;;;;;6.40;6.30;;;20.00;59.60;;;;;;5013533;28;20442;-63
2024/03/18 05:53:51;;;;;;;6.83;6.73;;;20.00;59.70;;;;;;5013682;28;20818;-62
2024/03/18 05:56:18;;;;;;;6.87;6.77;;;20.00;59.70;;;;;;5013212;28;20500;-62
2024/03/18 05:58:45;;;;;;;6.10;6.00;;;20.00;59.80;;;;;;5013305;28;20971;-60
2024/03/18 06:01:12;;;;;;;6.07;5.97;;;20.00;59.80;;;;;;5013522;28;20488;-62
2024/03/18 06:03:39;;;;;;;6.50;6.40;;;20.00;59.90;;;;;;5005421;28;20935;-62
2024/03/18 06:06:08;;;;;;;6.67;6.57;;;20.00;59.90;;;;;;5013304;28;20819;-62
2024/03/18 06:08:35;;;;;;;6.23;6.13;;;19.90;59.90;;;;;;5012806;28;20466;-61
2024/03/18 06:11:02;;;;;;;5.70;5.60;;;20.00;60.00;;;;;;5003189;28;20446;-62
2024/03/18 06:13:29;;;;;;;6.77;6.57;;;20.00;60.00;;;;;;5012975;28;20449;-62
2024/03/18 06:15:56;;;;;;;6.40;6.20;;;20.00;60.20;;;;;;5013103;28;20843;-62
2024/03/18 06:18:23;;;;;;;6.17;6.07;;;20.00;60.10;;;;;;5031540;23;20503;-62
2024/03/18 06:20:50;;;;;;;6.07;5.97;;;20.00;60.10;;;;;;4993795;28;20807;-60
2024/03/18 06:23:22;;;;;;;6.10;6.00;;;19.90;60.10;;;;;;4993708;28;20821;-60
2024/03/18 06:25:55;;;;;;;6.30;6.20;;;20.00;60.20;;;;;;4993748;28;20443;-60
2024/03/18 06:28:22;;;;;;;6.50;6.40;;;19.90;60.10;;;;;;4991840;28;20469;-60
2024/03/18 06:30:50;;;;;;;6.60;6.40;;;19.90;60.10;;;;;;4987014;28;20843;-61
2024/03/18 06:33:16;;;;;;;6.30;6.20;;;19.90;60.20;;;;;;4993833;28;20508;-61
2024/03/18 06:35:45;;;;;;;6.60;6.40;;;19.90;60.20;;;;;;4993245;28;20569;-60
2024/03/18 06:38:11;;;;;;;6.50;6.40;;;19.90;60.30;;;;;;4993177;28;20471;-60
2024/03/18 06:40:40;;;;;;;6.50;6.40;;;19.90;60.40;;;;;;4990002;28;20448;-66
2024/03/18 06:43:07;;;;;;;6.30;6.20;;;20.00;60.70;;;;;;4990590;28;20443;-64
2024/03/18 06:45:34;;;;;;;6.60;6.40;;;20.20;60.90;;;;;;4995525;28;20439;-64
2024/03/18 06:48:02;;;;;;;7.70;7.50;;;20.30;60.50;;;;;;4993290;28;21027;-61
2024/03/18 06:50:29;;;;;;;6.90;6.70;;;20.40;60.60;;;;;;4992407;28;20447;-63
2024/03/18 06:52:56;;;;;;;7.20;6.80;;;20.50;61.50;;;;;;4995090;28;20553;-64
2024/03/18 06:55:23;;;;;;;6.70;6.40;;;20.50;61.80;;;;;;4993407;28;20483;-64
2024/03/18 06:57:51;;;;;;;5.67;5.57;;;20.60;61.60;;;;;;4993677;28;20944;-63
2024/03/18 07:00:19;;;;;;;6.20;6.10;;;20.70;61.80;;;;;;4986963;28;20538;-67
2024/03/18 07:02:49;;;;;;;6.97;6.77;;;20.70;62.00;;;;;;4993941;28;20443;-62
2024/03/18 07:05:16;;;;;;;7.90;7.70;;;20.70;61.50;;;;;;4993189;28;20486;-63
2024/03/18 07:07:43;;;;;;;7.60;7.37;;;20.80;61.90;;;;;;4992655;28;20819;-66
2024/03/18 07:10:11;;;;;;;7.00;6.90;;;20.80;62.10;;;;;;4986342;28;20509;-65
2024/03/18 07:12:38;;;;;;;7.93;7.33;;;20.80;62.30;;;;;;4986582;28;20526;-64
2024/03/18 07:15:07;;;;;;;6.90;6.80;;;20.80;62.40;;;;;;4986358;28;20479;-65
2024/03/18 07:17:35;;;;;;;7.13;7.00;;;20.90;62.50;;;;;;4984337;28;20466;-68
2024/03/18 07:20:02;;;;;;;7.00;6.80;;;20.90;62.40;;;;;;4986216;28;20475;-66
2024/03/18 07:22:29;;;;;;;7.57;7.37;;;20.90;62.30;;;;;;4992234;28;20474;-66
2024/03/18 07:24:56;;;;;;;6.97;6.77;;;20.90;62.30;;;;;;4992115;28;20439;-67
2024/03/18 07:27:23;;;;;;;7.23;6.90;;;20.90;62.20;;;;;;4992343;28;20443;-67
2024/03/18 07:29:53;;;;;;;7.50;7.30;;;21.00;62.20;;;;;;4986931;28;20460;-67
2024/03/18 07:32:21;;;;;;;7.23;6.93;;;21.00;62.20;;;;;;4989994;28;20828;-63
2024/03/18 07:34:48;;;;;;;6.87;6.77;;;21.10;62.30;;;;;;4992521;28;20483;-63
2024/03/18 07:37:15;;;;;;;6.77;6.60;;;21.10;62.20;;;;;;4992674;28;20449;-63
2024/03/18 07:39:42;;;;;;;6.90;6.80;;;21.10;62.10;;;;;;4992312;28;20867;-64
2024/03/18 07:42:08;;;;;;;6.90;6.67;;;21.10;62.00;;;;;;4992873;28;20951;-62
2024/03/18 07:44:35;;;;;;;7.40;7.20;;;21.10;61.90;;;;;;4991288;28;20454;-62
2024/03/18 07:47:02;;;;;;;6.77;6.67;;;21.20;61.90;;;;;;4992189;28;20455;-61
2024/03/18 07:49:30;;;;;;;6.50;6.40;;;21.20;61.70;;;;;;4986326;28;20996;-67
2024/03/18 07:51:57;;;;;;;7.30;7.00;;;21.20;61.60;;;;;;4973372;28;20832;-65
2024/03/18 07:54:23;;;;;;;7.33;7.03;;;21.20;61.30;;;;;;4973621;28;20861;-65
2024/03/18 07:56:50;;;;;;;7.20;7.10;;;21.30;61.60;;;;;;4973420;28;20483;-65
2024/03/18 07:59:17;;;;;;;7.63;7.43;;;21.30;61.60;;;;;;4976811;28;20805;-63
2024/03/18 08:01:43;;;;;;;6.50;6.40;;;21.30;61.50;;;;;;4992452;28;20511;-61
2024/03/18 08:04:10;;;;;;;7.33;7.13;;;21.30;61.30;;;;;;4992530;28;20928;-61
2024/03/18 08:06:41;;;;;;;7.57;7.33;;;21.40;61.50;;;;;;4992445;28;20527;-58
2024/03/18 08:09:08;;;;;;;7.60;7.40;;;21.40;61.50;;;;;;4990649;28;20491;-63
2024/03/18 08:11:34;;;;;;;7.70;7.30;;;21.40;61.40;;;;;;4992326;28;20522;-60
2024/03/18 08:14:01;;;;;;;7.47;6.87;;;21.40;61.30;;;;;;4992237;28;20454;-65
2024/03/18 08:16:28;;;;;;;7.17;6.97;;;21.50;61.40;;;;;;4991720;28;20565;-65
2024/03/18 08:18:55;;;;;;;7.13;6.93;;;21.40;61.50;;;;;;4992169;28;20474;-60
2024/03/18 08:21:23;;;;;;;6.30;6.10;;;21.50;61.30;;;;;;4994272;28;20443;-61
2024/03/18 08:23:51;;;;;;;6.53;6.43;;;21.50;61.20;;;;;;4993824;28;20820;-58
2024/03/18 08:26:18;;;;;;;6.97;6.80;;;21.40;61.30;;;;;;4991676;28;20450;-66
2024/03/18 08:28:45;;;;;;;7.90;7.60;;;21.40;62.10;;;;;;4991678;28;20487;-64
2024/03/18 08:31:11;;;;;;;7.00;6.80;;;21.40;62.50;;;;;;4979200;28;20436;-66
2024/03/18 08:33:38;;;;;;;7.63;7.43;;;21.40;62.80;;;;;;4989455;28;20442;-65
2024/03/18 08:36:05;;;;;;;6.67;6.57;;;21.40;62.90;;;;;;4991673;28;20840;-62
2024/03/18 08:38:32;;;;;;;6.15;5.85;;;21.40;63.00;;;;;;4992516;28;20436;-64
2024/03/18 08:41:00;;;;;;;7.17;7.07;;;21.40;62.90;;;;;;4976590;28;20204;-61
2024/03/18 08:43:27;;;;;;;8.03;7.60;;;21.80;62.20;;;;;;4976144;28;20439;-62
2024/03/18 08:45:54;;;;;;;7.50;7.30;;;22.10;61.00;;;;;;4975781;28;20444;-66
2024/03/18 08:48:21;;;;;;;7.70;7.30;;;22.30;60.40;;;;;;4976225;28;20972;-67
2024/03/18 08:50:48;;;;;;;7.50;7.30;;;22.30;59.90;;;;;;4976402;28;20440;-69
2024/03/18 08:53:16;;;;;;;7.73;7.50;;;22.40;59.60;;;;;;4976023;28;20446;-63
2024/03/18 08:55:45;;;;;;;7.03;6.83;;;22.40;59.50;;;;;;4975639;28;20535;-67
2024/03/18 08:58:14;;;;;;;7.37;7.07;;;22.50;59.50;;;;;;4975945;28;20551;-67
2024/03/18 09:00:40;;;;;;;7.40;7.30;;;22.50;59.30;;;;;;4988189;28;20465;-62
2024/03/18 09:03:08;;;;;;;7.23;7.07;;;22.50;59.20;;;;;;4995277;28;20439;-62
2024/03/18 09:05:35;;;;;;;7.50;7.30;;;22.50;59.20;;;;;;4994862;28;20858;-63
2024/03/18 09:08:03;;;;;;;7.70;7.20;;;22.50;59.20;;;;;;4995518;28;20462;-65
2024/03/18 09:10:30;;;;;;;7.83;7.53;;;22.50;59.20;;;;;;4983957;28;20459;-66
2024/03/18 09:12:58;;;;;;;7.17;6.97;;;22.40;59.20;;;;;;4975430;28;20447;-66
2024/03/18 09:15:26;;;;;;;7.70;7.50;;;22.50;59.40;;;;;;4975062;28;20526;-63
2024/03/18 09:17:54;;;;;;;7.70;7.50;;;22.50;59.30;;;;;;4975235;28;20440;-67
2024/03/18 09:20:21;;;;;;;8.13;7.83;;;22.50;59.20;;;;;;4985892;28;20932;-66
2024/03/18 09:22:48;;;;;;;7.70;7.50;;;22.50;59.50;;;;;;4996239;28;20442;-64
2024/03/18 09:25:15;;;;;;;7.20;7.00;;;22.40;59.50;;;;;;4995509;28;20958;-63
2024/03/18 09:27:42;;;;;;;8.17;7.87;;;22.40;60.10;;;;;;4994900;28;20453;-65
2024/03/18 09:30:10;;;;;;;7.70;7.50;;;22.40;59.50;;;;;;4991843;28;20447;-68
2024/03/18 09:32:38;;;;;;;8.50;8.20;;;22.50;59.60;;;;;;4995727;28;20446;-67
2024/03/18 09:35:07;;;;;;;7.50;7.30;;;22.50;59.50;;;;;;4994825;28;20529;-67
2024/03/18 09:37:34;;;;;;;8.40;7.97;;;22.50;59.40;;;;;;4994889;28;20497;-64
2024/03/18 09:40:00;;;;;;;7.60;7.40;;;22.50;59.30;;;;;;4993326;28;20530;-68
2024/03/18 09:42:28;;;;;;;8.00;7.80;;;22.50;59.30;;;;;;4993329;28;20438;-66
2024/03/18 09:44:55;;;;;;;7.63;7.53;;;22.60;59.40;;;;;;4992961;28;20449;-65
2024/03/18 09:47:24;;;;;;;7.20;7.10;;;22.60;59.20;;;;;;4994693;28;20443;-64
2024/03/18 09:49:54;;;;;;;7.10;6.90;;;22.50;59.10;;;;;;4992950;28;20483;-61
2024/03/18 09:52:22;;;;;;;6.93;6.73;;;22.60;58.90;;;;;;4995186;28;20435;-65
2024/03/18 09:54:50;;;;;;;7.53;7.33;;;22.50;59.10;;;;;;4993648;28;20454;-64
2024/03/18 09:57:18;;;;;;;7.23;7.03;;;22.60;59.30;;;;;;4995147;28;20479;-64
2024/03/18 09:59:45;;;;;;;7.10;6.90;;;22.60;59.20;;;;;;4993363;28;20550;-65
2024/03/18 10:02:17;;;;;;;7.33;7.17;;;22.60;59.20;;;;;;4977548;28;20531;-66
2024/03/18 10:04:44;;;;;;;8.10;7.80;;;22.60;59.30;;;;;;4975009;28;20444;-66
2024/03/18 10:07:14;;;;;;;6.87;6.73;;;22.50;59.30;;;;;;4975041;28;20478;-66
2024/03/18 10:09:41;;;;;;;6.63;6.50;;;22.60;59.50;;;;;;4974884;28;20494;-66
2024/03/18 10:12:13;;;;;;;7.53;7.23;;;22.60;59.90;;;;;;4995939;28;20454;-67
2024/03/18 10:14:39;;;;;;;8.03;7.63;;;22.60;59.90;;;;;;4995421;28;20467;-66
2024/03/18 10:17:12;;;;;;;7.70;7.50;;;22.60;59.60;;;;;;4994731;28;20844;-66
2024/03/18 10:19:40;;;;;;;7.23;7.13;;;22.60;59.50;;;;;;4994363;28;20478;-66
2024/03/18 10:22:12;;;;;;;7.37;7.27;;;22.60;59.40;;;;;;4994024;28;20454;-65
2024/03/18 10:24:39;;;;;;;7.77;7.47;;;22.60;59.30;;;;;;4994004;28;20809;-62
2024/03/18 10:27:07;;;;;;;7.47;7.13;;;22.60;58.90;;;;;;4993630;28;20451;-60
2024/03/18 10:29:34;;;;;;;7.07;6.93;;;22.60;58.90;;;;;;4993576;28;20467;-62
2024/03/18 10:32:01;;;;;;;7.37;6.90;;;22.60;59.00;;;;;;4993632;28;20450;-64
2024/03/18 10:34:33;;;;;;;7.30;7.10;;;22.60;59.50;;;;;;4993663;28;20447;-64
2024/03/18 10:37:01;;;;;;;7.50;7.40;;;22.60;59.20;;;;;;4993329;28;20836;-63
2024/03/18 10:39:39;;;;;;;7.57;7.27;;;22.60;59.20;;;;;;4993607;28;20458;-63
2024/03/18 10:42:13;;;;;;;7.30;7.00;;;22.60;59.10;;;;;;4976732;28;20452;-62
2024/03/18 10:44:47;;;;;;;6.90;6.80;;;22.60;58.90;;;;;;4974296;28;20451;-62
2024/03/18 10:47:14;;;;;;;6.90;6.60;;;22.70;59.10;;;;;;4974558;28;20434;-63
2024/03/18 10:49:41;;;;;;;6.10;5.80;;;22.60;59.30;;;;;;4984142;28;20440;-57
2024/03/18 10:52:11;;;;;;;8.43;7.93;;;22.60;59.20;;;;;;4993461;28;20208;-61
2024/03/18 10:54:40;;;;;;;6.90;6.80;;;22.60;59.60;;;;;;4993217;28;20446;-62
2024/03/18 10:57:09;;;;;;;6.70;6.50;;;22.60;59.40;;;;;;4993850;28;20510;-64
2024/03/18 10:59:37;;;;;;;7.60;7.30;;;22.50;59.50;;;;;;4992898;28;20470;-65
2024/03/18 11:02:03;;;;;;;6.93;6.83;;;22.50;59.60;;;;;;4993952;28;20443;-64
2024/03/18 11:04:30;;;;;;;6.90;6.80;;;22.50;59.60;;;;;;4992712;28;20447;-60
2024/03/18 11:06:57;;;;;;;8.30;8.00;;;22.60;59.70;;;;;;4992338;28;20443;-65
2024/03/18 11:09:24;;;;;;;7.70;7.40;;;22.50;59.60;;;;;;4986049;28;20467;-61
2024/03/18 11:11:53;;;;;;;8.43;7.77;;;22.50;60.20;;;;;;4975648;28;20440;-60
2024/03/18 11:14:27;;;;;;;7.80;7.23;;;22.50;59.90;;;;;;4974178;28;20440;-68
2024/03/18 11:16:55;;;;;;;7.97;7.43;;;22.40;60.10;;;;;;4973116;28;20571;-67
2024/03/18 11:19:24;;;;;;;7.80;7.20;;;22.30;60.90;;;;;;4979718;28;20478;-64
2024/03/18 11:21:58;;;;;;;7.67;7.20;;;22.20;61.10;;;;;;4992797;28;21027;-65
2024/03/18 11:24:25;;;;;;;7.90;7.70;;;22.20;61.50;;;;;;4992641;28;20447;-65
2024/03/18 11:26:57;;;;;;;6.40;6.30;;;22.20;61.50;;;;;;4992538;28;20443;-65
2024/03/18 11:29:30;;;;;;;7.77;7.20;;;22.10;61.50;;;;;;4985284;28;20460;-65
2024/03/18 11:32:01;;;;;;;6.60;6.50;;;22.10;61.70;;;;;;4973390;28;20948;-67
2024/03/18 11:34:28;;;;;;;7.57;7.27;;;22.10;61.80;;;;;;4973119;28;20448;-66
2024/03/18 11:36:55;;;;;;;7.33;7.13;;;22.10;61.90;;;;;;4972556;28;20483;-66
2024/03/18 11:39:23;;;;;;;7.50;7.30;;;22.10;61.90;;;;;;4974001;28;20455;-66
2024/03/18 11:42:01;;;;;;;7.43;6.80;;;22.10;61.90;;;;;;4973203;28;20457;-66
2024/03/18 11:44:27;;;;;;;7.30;7.00;;;22.10;61.80;;;;;;4973064;28;20444;-69
2024/03/18 11:47:02;;;;;;;5.78;5.40;;;22.20;61.80;;;;;;4971552;28;20441;-67
2024/03/18 11:49:29;;;;;;;7.20;6.93;;;22.40;61.30;;;;;;4979201;28;20736;-64
2024/03/18 11:51:56;;;;;;;6.10;5.90;;;22.50;60.30;;;;;;4992283;28;20455;-65
2024/03/18 11:54:23;;;;;;;7.33;6.70;;;22.50;59.80;;;;;;4992271;28;20442;-64
2024/03/18 11:56:50;;;;;;;6.57;6.37;;;22.50;59.60;;;;;;4992249;28;20490;-64
2024/03/18 11:59:18;;;;;;;7.37;7.10;;;22.50;59.40;;;;;;4974066;28;20525;-63
2024/03/18 12:01:47;;;;;;;7.00;6.80;;;22.60;59.50;;;;;;4972865;28;20967;-64
2024/03/18 12:04:18;;;;;;;6.33;6.23;;;22.50;59.40;;;;;;4972886;28;20969;-64
2024/03/18 12:06:46;;;;;;;6.47;6.27;;;22.50;59.40;;;;;;4972879;28;20534;-65
2024/03/18 12:09:14;;;;;;;7.00;6.80;;;22.50;59.40;;;;;;4989654;28;20467;-65
2024/03/18 12:11:41;;;;;;;7.00;6.90;;;22.50;59.40;;;;;;4991940;28;20474;-68
2024/03/18 12:14:09;;;;;;;6.80;6.70;;;22.60;59.80;;;;;;4992100;28;20450;-66
2024/03/18 12:16:37;;;;;;;6.60;6.50;;;22.50;59.40;;;;;;4993027;28;20990;-68
2024/03/18 12:19:05;;;;;;;7.23;7.03;;;22.50;59.40;;;;;;5038804;23;20490;-64
2024/03/18 12:21:38;;;;;;;6.00;5.90;;;22.50;59.40;;;;;;4995638;28;20928;-65
2024/03/18 12:29:36;;;;;;;6.93;6.73;;;22.50;59.30;;;;;;4993387;28;20449;-65
2024/03/18 12:32:04;;;;;;;7.00;6.80;;;22.50;59.30;;;;;;4995627;28;20443;-65
2024/03/18 12:34:32;;;;;;;7.00;6.90;;;22.50;59.30;;;;;;4995502;28;20447;-65
2024/03/18 12:37:01;;;;;;;7.50;7.20;;;22.50;59.30;;;;;;4994921;28;20896;-65
2024/03/18 12:39:29;;;;;;;6.73;6.53;;;22.50;59.20;;;;;;4995140;28;20494;-66
2024/03/18 12:41:59;;;;;;;6.87;6.70;;;22.50;59.20;;;;;;4983295;28;20444;-66
2024/03/18 12:44:27;;;;;;;7.20;6.20;;;22.40;59.00;;;;;;4991372;28;20443;-64
2024/03/18 12:46:54;;;;;;;6.67;6.43;;;22.50;59.40;;;;;;4994797;28;20781;-63
2024/03/18 12:49:22;;;;;;;6.63;6.53;;;22.50;59.40;;;;;;4995168;28;20990;-63
2024/03/18 12:51:50;;;;;;;7.60;7.03;;;22.50;59.20;;;;;;4995245;28;20490;-63
2024/03/18 12:54:18;;;;;;;7.37;7.00;;;22.50;59.20;;;;;;4991178;28;20450;-62
2024/03/18 12:56:45;;;;;;;7.60;7.40;;;22.50;59.10;;;;;;4994702;28;20484;-65
2024/03/18 12:59:12;;;;;;;7.20;6.90;;;22.50;59.50;;;;;;4994989;28;20486;-62